sensor_id;sensor_type;location;lat;lon;timestamp;temperature;humidity
75451;DHT22;64029;48.244;9.188;2023-04-26T00:01:01;5.50;80.80
75451;DHT22;64029;48.244;9.188;2023-04-26T00:03:30;5.50;80.60
75451;DHT22;64029;48.244;9.188;2023-04-26T00:05:58;5.50;80.90
75451;DHT22;64029;48.244;9.188;2023-04-26T00:08:28;5.60;80.10
75451;DHT22;64029;48.244;9.188;2023-04-26T00:10:55;5.50;79.60
75451;DHT22;64029;48.244;9.188;2023-04-26T00:13:22;5.50;79.80
75451;DHT22;64029;48.244;9.188;2023-04-26T00:15:50;5.50;79.60
75451;DHT22;64029;48.244;9.188;2023-04-26T00:18:17;5.50;79.50
75451;DHT22;64029;48.244;9.188;2023-04-26T00:20:44;5.50;80.20
75451;DHT22;64029;48.244;9.188;2023-04-26T00:23:10;5.50;79.80
75451;DHT22;64029;48.244;9.188;2023-04-26T00:25:37;5.50;79.60
75451;DHT22;64029;48.244;9.188;2023-04-26T00:28:04;5.50;79.70
75451;DHT22;64029;48.244;9.188;2023-04-26T00:30:31;5.50;79.90
75451;DHT22;64029;48.244;9.188;2023-04-26T00:33:00;5.50;79.90
75451;DHT22;64029;48.244;9.188;2023-04-26T00:35:27;5.40;80.60
75451;DHT22;64029;48.244;9.188;2023-04-26T00:37:53;5.40;81.00
75451;DHT22;64029;48.244;9.188;2023-04-26T00:40:20;5.40;80.70
75451;DHT22;64029;48.244;9.188;2023-04-26T00:42:47;5.40;81.00
75451;DHT22;64029;48.244;9.188;2023-04-26T00:45:14;5.40;80.70
75451;DHT22;64029;48.244;9.188;2023-04-26T00:47:41;5.40;81.10
75451;DHT22;64029;48.244;9.188;2023-04-26T00:50:09;5.40;81.30
75451;DHT22;64029;48.244;9.188;2023-04-26T00:52:36;5.30;81.30
75451;DHT22;64029;48.244;9.188;2023-04-26T00:55:04;5.30;82.00
75451;DHT22;64029;48.244;9.188;2023-04-26T00:57:32;5.30;82.10
75451;DHT22;64029;48.244;9.188;2023-04-26T00:59:58;5.30;82.50
75451;DHT22;64029;48.244;9.188;2023-04-26T01:02:25;5.30;82.40
75451;DHT22;64029;48.244;9.188;2023-04-26T01:04:52;5.30;82.20
75451;DHT22;64029;48.244;9.188;2023-04-26T01:07:20;5.30;82.00
75451;DHT22;64029;48.244;9.188;2023-04-26T01:09:48;5.30;82.90
75451;DHT22;64029;48.244;9.188;2023-04-26T01:12:15;5.30;82.60
75451;DHT22;64029;48.244;9.188;2023-04-26T01:14:43;5.30;83.00
75451;DHT22;64029;48.244;9.188;2023-04-26T01:17:10;5.30;82.30
75451;DHT22;64029;48.244;9.188;2023-04-26T01:19:46;5.30;82.70
75451;DHT22;64029;48.244;9.188;2023-04-26T01:22:13;5.30;82.60
75451;DHT22;64029;48.244;9.188;2023-04-26T01:24:42;5.20;82.30
75451;DHT22;64029;48.244;9.188;2023-04-26T01:27:09;5.20;81.90
75451;DHT22;64029;48.244;9.188;2023-04-26T01:29:36;5.20;81.80
75451;DHT22;64029;48.244;9.188;2023-04-26T01:32:03;5.20;81.80
75451;DHT22;64029;48.244;9.188;2023-04-26T01:34:30;5.20;81.40
75451;DHT22;64029;48.244;9.188;2023-04-26T01:36:57;5.20;81.70
75451;DHT22;64029;48.244;9.188;2023-04-26T01:39:25;5.20;81.70
75451;DHT22;64029;48.244;9.188;2023-04-26T01:41:56;5.20;81.80
75451;DHT22;64029;48.244;9.188;2023-04-26T01:44:23;5.20;82.20
75451;DHT22;64029;48.244;9.188;2023-04-26T01:46:50;5.20;82.60
75451;DHT22;64029;48.244;9.188;2023-04-26T01:49:17;5.20;82.20
75451;DHT22;64029;48.244;9.188;2023-04-26T01:51:44;5.20;82.80
75451;DHT22;64029;48.244;9.188;2023-04-26T01:54:11;5.20;82.20
75451;DHT22;64029;48.244;9.188;2023-04-26T01:56:37;5.20;82.60
75451;DHT22;64029;48.244;9.188;2023-04-26T01:59:06;5.20;82.80
75451;DHT22;64029;48.244;9.188;2023-04-26T02:01:32;5.10;82.30
75451;DHT22;64029;48.244;9.188;2023-04-26T02:03:59;5.10;81.80
75451;DHT22;64029;48.244;9.188;2023-04-26T02:06:26;5.10;81.90
75451;DHT22;64029;48.244;9.188;2023-04-26T02:08:53;5.10;82.80
75451;DHT22;64029;48.244;9.188;2023-04-26T02:11:20;5.10;82.70
75451;DHT22;64029;48.244;9.188;2023-04-26T02:13:47;5.10;82.90
75451;DHT22;64029;48.244;9.188;2023-04-26T02:16:15;5.10;82.70
75451;DHT22;64029;48.244;9.188;2023-04-26T02:18:42;5.10;82.20
75451;DHT22;64029;48.244;9.188;2023-04-26T02:21:10;5.10;82.10
75451;DHT22;64029;48.244;9.188;2023-04-26T02:23:37;5.10;82.30
75451;DHT22;64029;48.244;9.188;2023-04-26T02:26:04;5.00;82.00
75451;DHT22;64029;48.244;9.188;2023-04-26T02:28:31;5.00;82.00
75451;DHT22;64029;48.244;9.188;2023-04-26T02:30:58;5.00;82.00
75451;DHT22;64029;48.244;9.188;2023-04-26T02:33:26;5.00;82.10
75451;DHT22;64029;48.244;9.188;2023-04-26T02:35:53;4.90;81.90
75451;DHT22;64029;48.244;9.188;2023-04-26T02:38:20;4.90;81.70
75451;DHT22;64029;48.244;9.188;2023-04-26T02:40:47;4.90;81.70
75451;DHT22;64029;48.244;9.188;2023-04-26T02:43:13;4.90;81.60
75451;DHT22;64029;48.244;9.188;2023-04-26T02:45:41;4.90;81.90
75451;DHT22;64029;48.244;9.188;2023-04-26T02:48:08;4.90;81.50
75451;DHT22;64029;48.244;9.188;2023-04-26T02:50:36;4.80;81.40
75451;DHT22;64029;48.244;9.188;2023-04-26T02:53:03;4.80;81.50
75451;DHT22;64029;48.244;9.188;2023-04-26T02:55:30;4.80;81.60
75451;DHT22;64029;48.244;9.188;2023-04-26T02:57:57;4.80;81.50
75451;DHT22;64029;48.244;9.188;2023-04-26T03:00:24;4.80;81.40
75451;DHT22;64029;48.244;9.188;2023-04-26T03:02:52;4.80;81.40
75451;DHT22;64029;48.244;9.188;2023-04-26T03:05:19;4.80;81.70
75451;DHT22;64029;48.244;9.188;2023-04-26T03:07:47;4.70;81.40
75451;DHT22;64029;48.244;9.188;2023-04-26T03:10:14;4.70;81.30
75451;DHT22;64029;48.244;9.188;2023-04-26T03:12:41;4.70;81.50
75451;DHT22;64029;48.244;9.188;2023-04-26T03:15:08;4.70;81.70
75451;DHT22;64029;48.244;9.188;2023-04-26T03:17:35;4.70;81.70
75451;DHT22;64029;48.244;9.188;2023-04-26T03:20:02;4.70;81.70
75451;DHT22;64029;48.244;9.188;2023-04-26T03:22:30;4.60;81.80
75451;DHT22;64029;48.244;9.188;2023-04-26T03:24:58;4.60;82.40
75451;DHT22;64029;48.244;9.188;2023-04-26T03:27:25;4.60;82.00
75451;DHT22;64029;48.244;9.188;2023-04-26T03:29:52;4.60;82.20
75451;DHT22;64029;48.244;9.188;2023-04-26T03:32:19;4.60;81.50
75451;DHT22;64029;48.244;9.188;2023-04-26T03:34:45;4.60;81.20
75451;DHT22;64029;48.244;9.188;2023-04-26T03:37:14;4.60;82.00
75451;DHT22;64029;48.244;9.188;2023-04-26T03:39:41;4.60;81.10
75451;DHT22;64029;48.244;9.188;2023-04-26T03:42:09;4.60;81.00
75451;DHT22;64029;48.244;9.188;2023-04-26T03:44:36;4.60;80.80
75451;DHT22;64029;48.244;9.188;2023-04-26T03:47:02;4.60;80.80
75451;DHT22;64029;48.244;9.188;2023-04-26T03:49:30;4.60;81.00
75451;DHT22;64029;48.244;9.188;2023-04-26T03:51:56;4.60;80.60
75451;DHT22;64029;48.244;9.188;2023-04-26T03:54:23;4.60;80.70
75451;DHT22;64029;48.244;9.188;2023-04-26T03:56:50;4.60;81.20
75451;DHT22;64029;48.244;9.188;2023-04-26T03:59:19;4.60;81.40
75451;DHT22;64029;48.244;9.188;2023-04-26T04:01:45;4.60;80.90
75451;DHT22;64029;48.244;9.188;2023-04-26T04:04:12;4.60;80.90
75451;DHT22;64029;48.244;9.188;2023-04-26T04:06:39;4.60;81.00
75451;DHT22;64029;48.244;9.188;2023-04-26T04:09:06;4.60;81.00
75451;DHT22;64029;48.244;9.188;2023-04-26T04:11:33;4.60;80.90
75451;DHT22;64029;48.244;9.188;2023-04-26T04:14:00;4.60;81.50
75451;DHT22;64029;48.244;9.188;2023-04-26T04:16:28;4.60;81.10
75451;DHT22;64029;48.244;9.188;2023-04-26T04:18:55;4.60;80.90
75451;DHT22;64029;48.244;9.188;2023-04-26T04:21:22;4.50;80.70
75451;DHT22;64029;48.244;9.188;2023-04-26T04:23:50;4.50;81.40
75451;DHT22;64029;48.244;9.188;2023-04-26T04:26:18;4.50;81.70
75451;DHT22;64029;48.244;9.188;2023-04-26T04:28:45;4.50;82.80
75451;DHT22;64029;48.244;9.188;2023-04-26T04:31:13;4.50;82.40
75451;DHT22;64029;48.244;9.188;2023-04-26T04:33:41;4.50;81.90
75451;DHT22;64029;48.244;9.188;2023-04-26T04:36:08;4.40;81.70
75451;DHT22;64029;48.244;9.188;2023-04-26T04:38:35;4.40;81.50
75451;DHT22;64029;48.244;9.188;2023-04-26T04:41:02;4.40;81.30
75451;DHT22;64029;48.244;9.188;2023-04-26T04:43:29;4.40;81.40
75451;DHT22;64029;48.244;9.188;2023-04-26T04:45:56;4.40;81.00
75451;DHT22;64029;48.244;9.188;2023-04-26T04:48:23;4.40;81.00
75451;DHT22;64029;48.244;9.188;2023-04-26T04:50:51;4.40;80.70
75451;DHT22;64029;48.244;9.188;2023-04-26T04:53:18;4.40;81.80
75451;DHT22;64029;48.244;9.188;2023-04-26T04:55:44;4.40;81.80
75451;DHT22;64029;48.244;9.188;2023-04-26T04:58:11;4.50;81.70
75451;DHT22;64029;48.244;9.188;2023-04-26T05:00:39;4.50;81.60
75451;DHT22;64029;48.244;9.188;2023-04-26T05:03:06;4.50;81.30
75451;DHT22;64029;48.244;9.188;2023-04-26T05:05:34;4.50;81.10
75451;DHT22;64029;48.244;9.188;2023-04-26T05:08:02;4.40;80.90
75451;DHT22;64029;48.244;9.188;2023-04-26T05:10:32;4.40;80.90
75451;DHT22;64029;48.244;9.188;2023-04-26T05:12:59;4.40;80.80
75451;DHT22;64029;48.244;9.188;2023-04-26T05:15:26;4.40;80.80
75451;DHT22;64029;48.244;9.188;2023-04-26T05:17:53;4.40;81.10
75451;DHT22;64029;48.244;9.188;2023-04-26T05:20:20;4.40;80.90
75451;DHT22;64029;48.244;9.188;2023-04-26T05:22:47;4.40;81.00
75451;DHT22;64029;48.244;9.188;2023-04-26T05:25:15;4.40;81.10
75451;DHT22;64029;48.244;9.188;2023-04-26T05:27:42;4.40;80.80
75451;DHT22;64029;48.244;9.188;2023-04-26T05:30:10;4.40;80.70
75451;DHT22;64029;48.244;9.188;2023-04-26T05:32:38;4.40;81.00
75451;DHT22;64029;48.244;9.188;2023-04-26T05:35:06;4.40;81.80
75451;DHT22;64029;48.244;9.188;2023-04-26T05:37:33;4.50;81.80
75451;DHT22;64029;48.244;9.188;2023-04-26T05:40:00;4.50;81.70
75451;DHT22;64029;48.244;9.188;2023-04-26T05:42:28;4.50;81.80
75451;DHT22;64029;48.244;9.188;2023-04-26T05:44:56;4.50;81.80
75451;DHT22;64029;48.244;9.188;2023-04-26T05:47:23;4.50;81.70
75451;DHT22;64029;48.244;9.188;2023-04-26T05:49:50;4.60;81.60
75451;DHT22;64029;48.244;9.188;2023-04-26T05:52:17;4.60;81.40
75451;DHT22;64029;48.244;9.188;2023-04-26T05:54:44;4.60;81.10
75451;DHT22;64029;48.244;9.188;2023-04-26T05:57:10;4.60;81.60
75451;DHT22;64029;48.244;9.188;2023-04-26T05:59:39;4.60;82.60
75451;DHT22;64029;48.244;9.188;2023-04-26T06:02:06;4.60;81.90
75451;DHT22;64029;48.244;9.188;2023-04-26T06:04:32;4.60;82.20
75451;DHT22;64029;48.244;9.188;2023-04-26T06:07:00;4.70;81.30
75451;DHT22;64029;48.244;9.188;2023-04-26T06:09:26;4.70;82.10
75451;DHT22;64029;48.244;9.188;2023-04-26T06:11:53;4.70;81.80
75451;DHT22;64029;48.244;9.188;2023-04-26T06:14:20;4.80;82.10
75451;DHT22;64029;48.244;9.188;2023-04-26T06:16:48;4.80;81.70
75451;DHT22;64029;48.244;9.188;2023-04-26T06:19:15;4.80;81.60
75451;DHT22;64029;48.244;9.188;2023-04-26T06:21:42;4.80;82.00
75451;DHT22;64029;48.244;9.188;2023-04-26T06:24:09;4.90;82.20
75451;DHT22;64029;48.244;9.188;2023-04-26T06:26:36;5.10;82.10
75451;DHT22;64029;48.244;9.188;2023-04-26T06:29:02;5.20;82.50
75451;DHT22;64029;48.244;9.188;2023-04-26T06:31:30;5.20;82.50
75451;DHT22;64029;48.244;9.188;2023-04-26T06:33:58;5.30;82.10
75451;DHT22;64029;48.244;9.188;2023-04-26T06:36:25;5.30;82.10
75451;DHT22;64029;48.244;9.188;2023-04-26T06:38:52;5.30;82.00
75451;DHT22;64029;48.244;9.188;2023-04-26T06:41:19;5.40;81.70
75451;DHT22;64029;48.244;9.188;2023-04-26T06:43:46;5.50;81.60
75451;DHT22;64029;48.244;9.188;2023-04-26T06:46:13;5.50;82.30
75451;DHT22;64029;48.244;9.188;2023-04-26T06:48:40;5.60;81.40
75451;DHT22;64029;48.244;9.188;2023-04-26T06:51:08;5.70;81.30
75451;DHT22;64029;48.244;9.188;2023-04-26T06:53:35;5.80;81.20
75451;DHT22;64029;48.244;9.188;2023-04-26T06:56:02;5.90;81.20
75451;DHT22;64029;48.244;9.188;2023-04-26T06:58:29;6.10;81.70
75451;DHT22;64029;48.244;9.188;2023-04-26T07:00:56;6.20;81.20
75451;DHT22;64029;48.244;9.188;2023-04-26T07:03:23;6.30;81.00
75451;DHT22;64029;48.244;9.188;2023-04-26T07:05:50;6.40;81.20
75451;DHT22;64029;48.244;9.188;2023-04-26T07:08:18;6.50;80.90
75451;DHT22;64029;48.244;9.188;2023-04-26T07:10:45;6.60;80.80
75451;DHT22;64029;48.244;9.188;2023-04-26T07:13:12;6.70;81.10
75451;DHT22;64029;48.244;9.188;2023-04-26T07:15:39;6.90;81.80
75451;DHT22;64029;48.244;9.188;2023-04-26T07:18:06;7.10;81.10
75451;DHT22;64029;48.244;9.188;2023-04-26T07:20:33;7.20;81.00
75451;DHT22;64029;48.244;9.188;2023-04-26T07:23:00;7.40;80.90
75451;DHT22;64029;48.244;9.188;2023-04-26T07:25:28;7.50;80.40
75451;DHT22;64029;48.244;9.188;2023-04-26T07:27:55;7.60;79.40
75451;DHT22;64029;48.244;9.188;2023-04-26T07:30:22;7.70;79.10
75451;DHT22;64029;48.244;9.188;2023-04-26T07:32:49;7.70;78.20
75451;DHT22;64029;48.244;9.188;2023-04-26T07:35:17;7.80;77.90
75451;DHT22;64029;48.244;9.188;2023-04-26T07:37:44;7.90;78.00
75451;DHT22;64029;48.244;9.188;2023-04-26T07:40:12;7.90;77.80
75451;DHT22;64029;48.244;9.188;2023-04-26T07:42:40;8.00;77.80
75451;DHT22;64029;48.244;9.188;2023-04-26T07:45:08;8.10;77.70
75451;DHT22;64029;48.244;9.188;2023-04-26T07:47:35;8.10;77.70
75451;DHT22;64029;48.244;9.188;2023-04-26T07:50:02;8.20;77.80
75451;DHT22;64029;48.244;9.188;2023-04-26T07:52:29;8.20;77.20
75451;DHT22;64029;48.244;9.188;2023-04-26T07:54:56;8.20;77.20
75451;DHT22;64029;48.244;9.188;2023-04-26T07:57:23;8.30;77.30
75451;DHT22;64029;48.244;9.188;2023-04-26T07:59:51;8.20;76.20
75451;DHT22;64029;48.244;9.188;2023-04-26T08:02:18;8.20;76.20
75451;DHT22;64029;48.244;9.188;2023-04-26T08:04:49;8.30;76.20
75451;DHT22;64029;48.244;9.188;2023-04-26T08:07:17;8.30;75.70
75451;DHT22;64029;48.244;9.188;2023-04-26T08:09:44;8.30;75.60
75451;DHT22;64029;48.244;9.188;2023-04-26T08:12:11;8.40;75.80
75451;DHT22;64029;48.244;9.188;2023-04-26T08:14:38;8.40;75.60
75451;DHT22;64029;48.244;9.188;2023-04-26T08:17:07;8.50;75.80
75451;DHT22;64029;48.244;9.188;2023-04-26T08:19:34;8.50;75.80
75451;DHT22;64029;48.244;9.188;2023-04-26T08:22:01;8.50;75.70
75451;DHT22;64029;48.244;9.188;2023-04-26T08:24:28;8.60;75.80
75451;DHT22;64029;48.244;9.188;2023-04-26T08:26:55;8.60;76.00
75451;DHT22;64029;48.244;9.188;2023-04-26T08:29:25;8.60;75.20
75451;DHT22;64029;48.244;9.188;2023-04-26T08:31:52;8.60;74.10
75451;DHT22;64029;48.244;9.188;2023-04-26T08:34:20;8.60;74.10
75451;DHT22;64029;48.244;9.188;2023-04-26T08:36:47;8.60;73.00
75451;DHT22;64029;48.244;9.188;2023-04-26T08:39:14;8.60;73.60
75451;DHT22;64029;48.244;9.188;2023-04-26T08:41:43;8.70;73.90
75451;DHT22;64029;48.244;9.188;2023-04-26T08:44:11;8.70;73.50
75451;DHT22;64029;48.244;9.188;2023-04-26T08:46:43;8.80;74.20
75451;DHT22;64029;48.244;9.188;2023-04-26T08:49:16;9.00;74.40
75451;DHT22;64029;48.244;9.188;2023-04-26T08:51:47;9.00;74.50
75451;DHT22;64029;48.244;9.188;2023-04-26T08:54:15;8.90;72.20
75451;DHT22;64029;48.244;9.188;2023-04-26T08:56:43;9.10;74.20
75451;DHT22;64029;48.244;9.188;2023-04-26T08:59:11;9.20;74.50
75451;DHT22;64029;48.244;9.188;2023-04-26T09:01:39;9.20;72.30
75451;DHT22;64029;48.244;9.188;2023-04-26T09:04:06;9.20;71.80
75451;DHT22;64029;48.244;9.188;2023-04-26T09:06:33;9.30;72.90
75451;DHT22;64029;48.244;9.188;2023-04-26T09:09:02;9.20;71.80
75451;DHT22;64029;48.244;9.188;2023-04-26T09:14:13;9.30;71.20
75451;DHT22;64029;48.244;9.188;2023-04-26T09:16:40;9.40;71.90
75451;DHT22;64029;48.244;9.188;2023-04-26T09:19:07;9.40;71.30
75451;DHT22;64029;48.244;9.188;2023-04-26T09:21:41;9.40;71.40
75451;DHT22;64029;48.244;9.188;2023-04-26T09:24:10;9.50;71.70
75451;DHT22;64029;48.244;9.188;2023-04-26T09:26:37;9.50;71.80
75451;DHT22;64029;48.244;9.188;2023-04-26T09:29:13;9.60;70.00
75451;DHT22;64029;48.244;9.188;2023-04-26T09:31:41;9.50;69.10
75451;DHT22;64029;48.244;9.188;2023-04-26T09:34:10;9.50;71.00
75451;DHT22;64029;48.244;9.188;2023-04-26T09:36:48;9.60;69.60
75451;DHT22;64029;48.244;9.188;2023-04-26T09:39:29;9.50;68.20
75451;DHT22;64029;48.244;9.188;2023-04-26T09:41:57;9.40;69.00
75451;DHT22;64029;48.244;9.188;2023-04-26T09:44:24;9.40;67.40
75451;DHT22;64029;48.244;9.188;2023-04-26T09:46:59;9.10;66.20
75451;DHT22;64029;48.244;9.188;2023-04-26T09:49:26;9.10;67.60
75451;DHT22;64029;48.244;9.188;2023-04-26T09:52:00;9.20;68.90
75451;DHT22;64029;48.244;9.188;2023-04-26T09:54:43;9.30;69.60
75451;DHT22;64029;48.244;9.188;2023-04-26T09:57:10;9.20;68.10
75451;DHT22;64029;48.244;9.188;2023-04-26T09:59:43;9.20;69.00
75451;DHT22;64029;48.244;9.188;2023-04-26T10:02:15;9.20;68.60
75451;DHT22;64029;48.244;9.188;2023-04-26T10:04:44;9.30;68.90
75451;DHT22;64029;48.244;9.188;2023-04-26T10:07:13;9.20;68.40
75451;DHT22;64029;48.244;9.188;2023-04-26T10:09:42;9.20;68.60
75451;DHT22;64029;48.244;9.188;2023-04-26T10:12:10;9.20;69.30
75451;DHT22;64029;48.244;9.188;2023-04-26T10:14:37;9.20;68.30
75451;DHT22;64029;48.244;9.188;2023-04-26T10:17:04;9.10;67.20
75451;DHT22;64029;48.244;9.188;2023-04-26T10:19:32;9.10;68.70
75451;DHT22;64029;48.244;9.188;2023-04-26T10:22:04;9.20;68.10
75451;DHT22;64029;48.244;9.188;2023-04-26T10:24:34;9.30;69.80
75451;DHT22;64029;48.244;9.188;2023-04-26T10:27:02;9.40;70.30
75451;DHT22;64029;48.244;9.188;2023-04-26T10:30:05;9.40;70.40
75451;DHT22;64029;48.244;9.188;2023-04-26T10:36:07;9.50;70.70
75451;DHT22;64029;48.244;9.188;2023-04-26T10:38:35;9.50;70.60
75451;DHT22;64029;48.244;9.188;2023-04-26T10:41:32;9.40;69.20
75451;DHT22;64029;48.244;9.188;2023-04-26T10:47:22;9.40;69.90
75451;DHT22;64029;48.244;9.188;2023-04-26T10:49:48;9.40;69.10
75451;DHT22;64029;48.244;9.188;2023-04-26T10:52:17;9.40;68.10
75451;DHT22;64029;48.244;9.188;2023-04-26T10:54:49;9.40;69.10
75451;DHT22;64029;48.244;9.188;2023-04-26T10:57:17;9.40;68.10
75451;DHT22;64029;48.244;9.188;2023-04-26T11:00:17;9.40;67.50
75451;DHT22;64029;48.244;9.188;2023-04-26T11:03:03;9.40;68.70
75451;DHT22;64029;48.244;9.188;2023-04-26T11:05:55;9.50;69.30
75451;DHT22;64029;48.244;9.188;2023-04-26T11:08:26;9.50;67.30
75451;DHT22;64029;48.244;9.188;2023-04-26T11:11:04;9.50;67.90
75451;DHT22;64029;48.244;9.188;2023-04-26T11:13:35;9.60;68.20
75451;DHT22;64029;48.244;9.188;2023-04-26T11:16:04;9.60;68.90
75451;DHT22;64029;48.244;9.188;2023-04-26T11:18:32;9.70;69.40
75451;DHT22;64029;48.244;9.188;2023-04-26T11:20:59;9.70;69.20
75451;DHT22;64029;48.244;9.188;2023-04-26T11:23:28;9.70;68.00
75451;DHT22;64029;48.244;9.188;2023-04-26T11:25:57;9.70;67.60
75451;DHT22;64029;48.244;9.188;2023-04-26T11:28:24;9.70;66.30
75451;DHT22;64029;48.244;9.188;2023-04-26T11:30:51;9.70;67.10
75451;DHT22;64029;48.244;9.188;2023-04-26T11:33:20;9.80;68.20
75451;DHT22;64029;48.244;9.188;2023-04-26T11:35:48;9.80;68.50
75451;DHT22;64029;48.244;9.188;2023-04-26T11:38:15;9.80;68.00
75451;DHT22;64029;48.244;9.188;2023-04-26T11:40:43;9.80;67.40
75451;DHT22;64029;48.244;9.188;2023-04-26T11:43:10;9.70;65.60
75451;DHT22;64029;48.244;9.188;2023-04-26T11:45:38;9.80;66.70
75451;DHT22;64029;48.244;9.188;2023-04-26T11:48:06;9.70;64.80
75451;DHT22;64029;48.244;9.188;2023-04-26T11:50:38;9.60;65.50
75451;DHT22;64029;48.244;9.188;2023-04-26T11:53:07;9.70;66.70
75451;DHT22;64029;48.244;9.188;2023-04-26T11:55:34;9.90;68.20
75451;DHT22;64029;48.244;9.188;2023-04-26T11:58:11;10.00;67.90
75451;DHT22;64029;48.244;9.188;2023-04-26T12:00:54;10.10;67.10
75451;DHT22;64029;48.244;9.188;2023-04-26T12:03:21;10.00;65.30
75451;DHT22;64029;48.244;9.188;2023-04-26T12:05:54;10.00;64.90
75451;DHT22;64029;48.244;9.188;2023-04-26T12:08:23;10.00;65.10
75451;DHT22;64029;48.244;9.188;2023-04-26T12:10:50;10.10;65.90
75451;DHT22;64029;48.244;9.188;2023-04-26T12:13:18;10.00;63.80
75451;DHT22;64029;48.244;9.188;2023-04-26T12:15:45;10.00;64.90
75451;DHT22;64029;48.244;9.188;2023-04-26T12:18:14;10.10;65.80
75451;DHT22;64029;48.244;9.188;2023-04-26T12:20:42;10.20;66.50
75451;DHT22;64029;48.244;9.188;2023-04-26T12:23:13;10.20;65.50
75451;DHT22;64029;48.244;9.188;2023-04-26T12:25:51;10.10;63.40
75451;DHT22;64029;48.244;9.188;2023-04-26T12:28:18;10.20;65.60
75451;DHT22;64029;48.244;9.188;2023-04-26T12:30:45;10.10;61.10
75451;DHT22;64029;48.244;9.188;2023-04-26T12:33:12;10.00;61.90
75451;DHT22;64029;48.244;9.188;2023-04-26T12:35:39;10.10;63.60
75451;DHT22;64029;48.244;9.188;2023-04-26T12:38:06;10.20;64.70
75451;DHT22;64029;48.244;9.188;2023-04-26T12:40:35;10.30;65.80
75451;DHT22;64029;48.244;9.188;2023-04-26T12:43:02;10.30;65.10
75451;DHT22;64029;48.244;9.188;2023-04-26T12:45:29;10.30;64.10
75451;DHT22;64029;48.244;9.188;2023-04-26T12:47:56;10.40;65.40
75451;DHT22;64029;48.244;9.188;2023-04-26T12:50:23;10.50;66.20
75451;DHT22;64029;48.244;9.188;2023-04-26T12:52:50;10.50;66.50
75451;DHT22;64029;48.244;9.188;2023-04-26T12:55:17;10.60;65.60
75451;DHT22;64029;48.244;9.188;2023-04-26T12:57:45;10.60;64.90
75451;DHT22;64029;48.244;9.188;2023-04-26T13:00:15;10.60;64.60
75451;DHT22;64029;48.244;9.188;2023-04-26T13:02:43;10.70;65.70
75451;DHT22;64029;48.244;9.188;2023-04-26T13:05:11;10.70;63.50
75451;DHT22;64029;48.244;9.188;2023-04-26T13:07:39;10.80;64.20
75451;DHT22;64029;48.244;9.188;2023-04-26T13:10:07;10.80;65.20
75451;DHT22;64029;48.244;9.188;2023-04-26T13:12:35;10.90;66.30
75451;DHT22;64029;48.244;9.188;2023-04-26T13:15:05;11.00;66.30
75451;DHT22;64029;48.244;9.188;2023-04-26T13:17:33;11.00;64.50
75451;DHT22;64029;48.244;9.188;2023-04-26T13:20:01;10.90;64.90
75451;DHT22;64029;48.244;9.188;2023-04-26T13:22:28;10.90;65.20
75451;DHT22;64029;48.244;9.188;2023-04-26T13:24:55;11.00;66.10
75451;DHT22;64029;48.244;9.188;2023-04-26T13:27:22;11.10;66.50
75451;DHT22;64029;48.244;9.188;2023-04-26T13:29:49;11.20;66.50
75451;DHT22;64029;48.244;9.188;2023-04-26T13:32:18;11.20;66.40
75451;DHT22;64029;48.244;9.188;2023-04-26T13:34:46;11.10;62.70
75451;DHT22;64029;48.244;9.188;2023-04-26T13:37:14;11.10;62.50
75451;DHT22;64029;48.244;9.188;2023-04-26T13:39:41;11.10;61.80
75451;DHT22;64029;48.244;9.188;2023-04-26T13:42:08;11.10;61.20
75451;DHT22;64029;48.244;9.188;2023-04-26T13:44:35;11.20;63.10
75451;DHT22;64029;48.244;9.188;2023-04-26T13:47:02;11.20;60.90
75451;DHT22;64029;48.244;9.188;2023-04-26T13:49:31;11.20;62.90
75451;DHT22;64029;48.244;9.188;2023-04-26T13:51:58;11.30;61.90
75451;DHT22;64029;48.244;9.188;2023-04-26T13:54:25;11.20;61.50
75451;DHT22;64029;48.244;9.188;2023-04-26T13:56:52;11.20;60.80
75451;DHT22;64029;48.244;9.188;2023-04-26T13:59:19;11.20;61.10
75451;DHT22;64029;48.244;9.188;2023-04-26T14:01:46;11.20;62.70
75451;DHT22;64029;48.244;9.188;2023-04-26T14:04:13;11.20;63.10
75451;DHT22;64029;48.244;9.188;2023-04-26T14:06:41;11.30;63.40
75451;DHT22;64029;48.244;9.188;2023-04-26T14:09:08;11.30;63.60
75451;DHT22;64029;48.244;9.188;2023-04-26T14:11:35;11.30;63.50
75451;DHT22;64029;48.244;9.188;2023-04-26T14:14:02;11.40;63.60
75451;DHT22;64029;48.244;9.188;2023-04-26T14:16:29;11.40;64.40
75451;DHT22;64029;48.244;9.188;2023-04-26T14:18:56;11.50;64.90
75451;DHT22;64029;48.244;9.188;2023-04-26T14:21:23;11.50;62.60
75451;DHT22;64029;48.244;9.188;2023-04-26T14:23:53;11.30;59.70
75451;DHT22;64029;48.244;9.188;2023-04-26T14:26:21;11.40;61.10
75451;DHT22;64029;48.244;9.188;2023-04-26T14:28:50;11.40;60.60
75451;DHT22;64029;48.244;9.188;2023-04-26T14:31:17;11.20;60.90
75451;DHT22;64029;48.244;9.188;2023-04-26T14:33:44;11.20;60.90
75451;DHT22;64029;48.244;9.188;2023-04-26T14:36:11;11.30;59.40
75451;DHT22;64029;48.244;9.188;2023-04-26T14:38:40;11.30;59.80
75451;DHT22;64029;48.244;9.188;2023-04-26T14:41:08;11.30;60.80
75451;DHT22;64029;48.244;9.188;2023-04-26T14:43:35;11.30;61.40
75451;DHT22;64029;48.244;9.188;2023-04-26T14:46:03;11.30;58.60
75451;DHT22;64029;48.244;9.188;2023-04-26T14:48:32;11.20;59.30
75451;DHT22;64029;48.244;9.188;2023-04-26T14:50:59;11.30;60.30
75451;DHT22;64029;48.244;9.188;2023-04-26T14:53:26;11.30;60.40
75451;DHT22;64029;48.244;9.188;2023-04-26T14:55:54;11.30;59.90
75451;DHT22;64029;48.244;9.188;2023-04-26T14:58:22;11.30;59.70
75451;DHT22;64029;48.244;9.188;2023-04-26T15:00:50;11.10;58.10
75451;DHT22;64029;48.244;9.188;2023-04-26T15:03:17;11.20;59.60
75451;DHT22;64029;48.244;9.188;2023-04-26T15:05:44;11.20;58.60
75451;DHT22;64029;48.244;9.188;2023-04-26T15:08:10;11.10;59.00
75451;DHT22;64029;48.244;9.188;2023-04-26T15:10:37;11.20;60.50
75451;DHT22;64029;48.244;9.188;2023-04-26T15:13:04;11.30;59.20
75451;DHT22;64029;48.244;9.188;2023-04-26T15:15:33;11.30;59.50
75451;DHT22;64029;48.244;9.188;2023-04-26T15:18:00;11.20;58.80
75451;DHT22;64029;48.244;9.188;2023-04-26T15:20:28;11.10;58.90
75451;DHT22;64029;48.244;9.188;2023-04-26T15:22:54;11.20;59.70
75451;DHT22;64029;48.244;9.188;2023-04-26T15:25:21;11.30;59.70
75451;DHT22;64029;48.244;9.188;2023-04-26T15:27:48;11.30;59.40
75451;DHT22;64029;48.244;9.188;2023-04-26T15:30:16;11.40;59.80
75451;DHT22;64029;48.244;9.188;2023-04-26T15:32:47;11.40;60.80
75451;DHT22;64029;48.244;9.188;2023-04-26T15:35:14;11.40;60.10
75451;DHT22;64029;48.244;9.188;2023-04-26T15:37:41;11.40;60.90
75451;DHT22;64029;48.244;9.188;2023-04-26T15:40:09;11.40;61.00
75451;DHT22;64029;48.244;9.188;2023-04-26T15:42:37;11.30;60.10
75451;DHT22;64029;48.244;9.188;2023-04-26T15:45:05;11.20;59.00
75451;DHT22;64029;48.244;9.188;2023-04-26T15:47:33;11.20;59.20
75451;DHT22;64029;48.244;9.188;2023-04-26T15:50:03;11.20;59.40
75451;DHT22;64029;48.244;9.188;2023-04-26T15:52:32;11.30;58.70
75451;DHT22;64029;48.244;9.188;2023-04-26T15:55:00;11.20;58.40
75451;DHT22;64029;48.244;9.188;2023-04-26T15:57:27;11.20;57.50